Time;durP1;ratioP1;P1;durP2;ratioP2;P2;SDS_P1;SDS_P2;PMS_P1;PMS_P2;Temp;Humidity;BMP_temperature;BMP_pressure;BME280_temperature;BME280_humidity;BME280_pressure;Samples;Min_cycle;Max_cycle;Signal;HPM_P1;HPM_P2
2023/04/14 00:00:05;;;;;;;3.20;3.00;;;;;;;20.16;57.52;98774.94;104607;1251;73160;-63
2023/04/14 00:02:42;;;;;;;2.90;2.60;;;;;;;20.09;58.17;98778.14;104535;1250;69290;-68
2023/04/14 00:05:11;;;;;;;3.10;2.80;;;;;;;20.02;57.47;98781.82;106489;1251;71947;-67
2023/04/14 00:07:40;;;;;;;3.20;2.90;;;;;;;19.92;57.88;98781.54;104932;1252;61895;-66
2023/04/14 00:10:08;;;;;;;3.10;2.80;;;;;;;19.87;58.49;98779.85;104558;1260;60914;-67
2023/04/14 00:12:37;;;;;;;2.40;2.20;;;;;;;19.91;58.29;98785.13;104702;1266;73341;-66
2023/04/14 00:15:06;;;;;;;3.30;2.70;;;;;;;19.91;58.79;98787.45;104495;1262;70036;-67
2023/04/14 00:17:37;;;;;;;4.30;2.90;;;;;;;19.86;58.54;98786.01;104470;1250;73331;-67
2023/04/14 00:20:08;;;;;;;2.80;2.60;;;;;;;19.81;59.01;98781.98;104583;1251;62080;-67
2023/04/14 00:22:36;;;;;;;2.90;2.60;;;;;;;19.84;58.54;98783.48;104568;1252;59745;-66
2023/04/14 00:25:05;;;;;;;4.30;3.00;;;;;;;19.85;58.17;98782.70;104595;1250;73179;-67
2023/04/14 00:27:34;;;;;;;4.30;3.60;;;;;;;19.78;58.05;98779.63;104426;1270;69536;-66
2023/04/14 00:30:04;;;;;;;3.00;2.80;;;;;;;19.70;59.10;98780.69;104514;1256;72209;-66
2023/04/14 00:32:37;;;;;;;3.10;2.70;;;;;;;19.72;59.12;98777.70;104524;1257;61125;-67
2023/04/14 00:35:05;;;;;;;2.70;2.50;;;;;;;19.72;59.39;98774.14;104489;1269;59977;-67
2023/04/14 00:37:36;;;;;;;2.70;2.50;;;;;;;19.75;59.50;98775.27;104448;1255;74259;-67
2023/04/14 00:40:09;;;;;;;4.00;2.70;;;;;;;19.79;59.25;98772.02;104629;1250;70012;-66
2023/04/14 00:42:44;;;;;;;2.90;2.70;;;;;;;19.89;59.06;98770.94;104527;1267;72410;-67
2023/04/14 00:45:13;;;;;;;2.90;2.70;;;;;;;20.00;58.61;98771.35;104454;1260;61934;-67
2023/04/14 00:47:45;;;;;;;3.40;3.10;;;;;;;20.03;58.42;98770.00;104402;1254;60527;-67
2023/04/14 00:50:16;;;;;;;3.30;3.00;;;;;;;19.98;58.10;98772.02;104639;1256;73345;-67
2023/04/14 00:52:46;;;;;;;3.00;2.80;;;;;;;19.94;58.49;98774.52;104511;1266;69955;-65
2023/04/14 00:55:17;;;;;;;4.40;2.50;;;;;;;19.92;58.52;98775.86;104553;1251;72026;-65
2023/04/14 00:57:46;;;;;;;2.70;2.50;;;;;;;19.93;58.50;98775.03;104540;1267;61144;-67
2023/04/14 01:00:15;;;;;;;4.30;3.20;;;;;;;19.89;58.20;98777.17;104899;1263;60229;-67
2023/04/14 01:02:45;;;;;;;2.50;2.30;;;;;;;19.79;58.51;98777.58;104750;1266;74276;-66
2023/04/14 01:05:15;;;;;;;2.90;2.60;;;;;;;19.81;58.88;98783.94;104520;1267;69581;-66
2023/04/14 01:07:45;;;;;;;2.80;2.60;;;;;;;19.88;58.64;98782.17;104626;1255;72909;-65
2023/04/14 01:10:14;;;;;;;3.70;3.10;;;;;;;19.90;58.84;98783.44;104489;1251;61367;-66
2023/04/14 01:13:07;;;;;;;2.80;2.60;;;;;;;19.86;58.67;98781.15;104260;1273;60764;-66
2023/04/14 01:15:42;;;;;;;3.00;2.70;;;;;;;19.92;58.79;98781.90;104420;1254;72597;-66
2023/04/14 01:18:14;;;;;;;3.00;2.40;;;;;;;19.89;58.47;98778.90;104350;1256;69238;-66
2023/04/14 01:20:44;;;;;;;3.60;3.30;;;;;;;19.92;58.08;98780.64;104552;1255;72156;-67
2023/04/14 01:23:25;;;;;;;2.60;2.40;;;;;;;19.87;58.03;98787.73;104650;1267;62097;-66
2023/04/14 01:26:09;;;;;;;3.20;2.60;;;;;;;19.83;57.60;98783.02;104418;1251;60525;-67
2023/04/14 01:29:00;;;;;;;3.40;2.60;;;;;;;19.76;57.60;98784.41;104414;1251;73157;-65
2023/04/14 01:31:33;;;;;;;3.10;2.70;;;;;;;19.71;57.89;98783.45;104357;1264;69758;-66
2023/04/14 01:34:29;;;;;;;2.60;2.40;;;;;;;19.71;57.89;98785.55;104350;1269;72667;-67
2023/04/14 01:37:13;;;;;;;7.20;2.30;;;;;;;19.77;58.17;98788.42;104430;1254;61562;-65
2023/04/14 01:39:45;;;;;;;2.70;2.50;;;;;;;19.80;58.03;98788.48;104409;1256;60572;-67
2023/04/14 01:42:16;;;;;;;2.70;2.40;;;;;;;19.76;57.53;98789.89;104322;1253;73127;-66
2023/04/14 01:44:44;;;;;;;4.70;2.70;;;;;;;19.77;57.43;98790.73;104322;1253;69563;-65
2023/04/14 01:47:13;;;;;;;2.60;2.40;;;;;;;19.80;57.05;98791.70;104351;1256;72882;-66
2023/04/14 01:49:42;;;;;;;3.10;2.90;;;;;;;19.78;56.87;98793.84;104319;1269;60967;-66
2023/04/14 01:52:10;;;;;;;3.90;3.00;;;;;;;19.61;57.60;98791.64;104325;1260;60417;-66
2023/04/14 01:54:40;;;;;;;3.90;2.80;;;;;;;19.57;57.57;98793.13;104331;1266;74345;-65
2023/04/14 01:57:10;;;;;;;3.50;3.10;;;;;;;19.53;58.01;98796.31;104258;1254;68713;-67
2023/04/14 01:59:40;;;;;;;3.10;2.80;;;;;;;19.54;57.84;98801.44;104317;1269;72394;-66
2023/04/14 02:02:10;;;;;;;3.00;2.80;;;;;;;19.53;57.70;98801.70;104313;1259;61282;-66
2023/04/14 02:04:39;;;;;;;2.90;2.60;;;;;;;19.52;57.97;98799.62;104454;1256;60613;-66
2023/04/14 02:07:09;;;;;;;4.00;2.60;;;;;;;19.57;57.59;98802.73;104503;1253;73103;-66
2023/04/14 02:09:38;;;;;;;6.70;3.10;;;;;;;19.65;57.63;98806.41;104468;1252;70168;-66
2023/04/14 02:12:07;;;;;;;3.50;3.20;;;;;;;19.67;57.30;98808.35;104393;1254;71896;-65
2023/04/14 02:14:35;;;;;;;3.20;3.00;;;;;;;19.61;57.78;98807.15;104415;1262;62705;-66
2023/04/14 02:17:04;;;;;;;3.20;2.90;;;;;;;19.59;57.68;98806.27;104272;1270;59710;-66
2023/04/14 02:19:32;;;;;;;4.10;3.50;;;;;;;19.54;57.14;98808.70;104323;1266;73825;-66
2023/04/14 02:22:02;;;;;;;4.50;3.00;;;;;;;19.47;57.73;98808.27;104485;1253;68620;-66
2023/04/14 02:24:31;;;;;;;3.70;3.40;;;;;;;19.43;58.20;98809.99;104345;1253;72892;-66
2023/04/14 02:27:07;;;;;;;3.00;2.80;;;;;;;19.43;57.90;98810.55;104420;1253;61022;-67
2023/04/14 02:29:37;;;;;;;4.00;3.40;;;;;;;19.40;57.93;98815.15;104263;1255;60628;-66
2023/04/14 02:32:08;;;;;;;4.10;3.70;;;;;;;19.29;57.95;98824.15;104453;1269;73940;-66
2023/04/14 02:35:00;;;;;;;3.80;3.50;;;;;;;19.24;58.79;98823.22;104439;1250;69062;-66
2023/04/14 02:37:35;;;;;;;4.60;3.70;;;;;;;19.22;58.48;98830.80;104504;1260;72887;-65
2023/04/14 02:40:11;;;;;;;4.50;3.20;;;;;;;19.18;58.29;98832.93;104534;1251;60836;-67
2023/04/14 02:42:40;;;;;;;5.40;3.30;;;;;;;19.22;58.84;98836.11;104389;1266;59547;-65
2023/04/14 02:45:12;;;;;;;4.00;3.60;;;;;;;19.31;58.60;98834.38;104433;1259;73231;-65
2023/04/14 02:47:45;;;;;;;3.50;3.20;;;;;;;19.37;58.43;98840.44;104452;1251;69964;-66
2023/04/14 02:50:15;;;;;;;5.10;3.10;;;;;;;19.41;58.58;98840.93;104431;1263;73179;-65
2023/04/14 02:52:50;;;;;;;6.30;3.10;;;;;;;19.53;58.13;98840.77;104660;1251;61004;-66
2023/04/14 02:55:22;;;;;;;4.20;3.20;;;;;;;19.56;57.65;98842.61;104572;1257;60447;-65
2023/04/14 02:57:52;;;;;;;3.60;3.40;;;;;;;19.60;57.28;98850.77;104272;1254;73727;-65
2023/04/14 03:00:21;;;;;;;3.70;3.40;;;;;;;19.57;57.12;98848.91;104650;1256;68919;-66
2023/04/14 03:02:52;;;;;;;3.30;3.00;;;;;;;19.54;57.27;98850.61;104580;1252;71925;-66
2023/04/14 03:05:21;;;;;;;4.50;3.40;;;;;;;19.50;57.26;98853.51;104543;1251;61387;-66
2023/04/14 03:07:55;;;;;;;5.90;3.60;;;;;;;19.54;57.13;98854.00;104844;1254;59775;-66
2023/04/14 03:10:24;;;;;;;3.90;3.60;;;;;;;19.48;57.16;98856.20;104486;1256;73249;-66
2023/04/14 03:12:53;;;;;;;5.50;3.90;;;;;;;19.43;57.09;98857.15;104332;1273;69139;-66
2023/04/14 03:15:21;;;;;;;4.70;3.50;;;;;;;19.41;57.25;98859.27;104514;1254;72190;-67
2023/04/14 03:17:52;;;;;;;3.90;3.50;;;;;;;19.40;57.09;98859.35;104539;1257;60750;-65
2023/04/14 03:20:22;;;;;;;4.50;3.30;;;;;;;19.38;57.24;98857.08;104421;1250;60491;-68
2023/04/14 03:23:05;;;;;;;4.00;3.70;;;;;;;19.36;57.24;98856.69;104249;1257;74794;-66
2023/04/14 03:25:47;;;;;;;5.80;3.50;;;;;;;19.37;57.28;98856.44;104673;1257;70166;-66
2023/04/14 03:28:24;;;;;;;3.80;3.50;;;;;;;19.34;57.48;98856.20;104347;1256;72224;-67
2023/04/14 03:30:53;;;;;;;4.00;3.60;;;;;;;19.34;57.56;98854.78;104415;1251;61697;-67
2023/04/14 03:33:28;;;;;;;3.70;3.40;;;;;;;19.35;57.50;98852.40;104460;1266;60093;-67
2023/04/14 03:35:57;;;;;;;3.70;3.40;;;;;;;19.35;57.52;98856.15;104531;1251;73728;-67
2023/04/14 03:38:27;;;;;;;3.70;3.40;;;;;;;19.31;57.42;98856.80;104557;1274;69040;-67
2023/04/14 03:40:59;;;;;;;6.30;3.50;;;;;;;19.26;58.13;98858.51;104646;1256;72653;-69
2023/04/14 03:43:28;;;;;;;3.40;3.00;;;;;;;19.21;57.86;98860.79;104561;1269;62601;-68
2023/04/14 03:46:04;;;;;;;3.80;3.50;;;;;;;19.27;57.82;98861.26;104538;1255;60550;-68
2023/04/14 03:48:34;;;;;;;3.80;3.40;;;;;;;19.23;57.67;98867.63;104435;1263;73238;-69
2023/04/14 03:51:03;;;;;;;4.40;3.80;;;;;;;19.19;57.59;98867.11;104360;1251;68452;-69
2023/04/14 03:53:33;;;;;;;5.50;3.90;;;;;;;19.23;57.52;98871.02;104503;1252;73400;-68
2023/04/14 03:56:02;;;;;;;5.60;4.00;;;;;;;19.19;57.65;98871.80;104647;1251;61922;-67
2023/04/14 03:58:33;;;;;;;4.30;3.90;;;;;;;19.17;57.47;98875.14;104705;1255;60494;-67
2023/04/14 04:01:02;;;;;;;6.90;3.90;;;;;;;19.15;57.99;98879.93;104374;1272;74277;-67
2023/04/14 04:03:33;;;;;;;4.00;3.70;;;;;;;19.17;58.12;98882.93;104550;1260;71110;-68
2023/04/14 04:06:03;;;;;;;4.40;4.00;;;;;;;19.16;57.97;98883.89;104711;1257;71982;-66
2023/04/14 04:08:31;;;;;;;4.30;3.80;;;;;;;19.17;58.32;98885.44;104917;1256;61027;-67
2023/04/14 04:10:59;;;;;;;4.90;4.30;;;;;;;19.18;58.11;98891.94;104822;1257;60558;-67
2023/04/14 04:13:28;;;;;;;4.60;4.30;;;;;;;19.13;58.46;98892.89;104745;1270;73169;-67
2023/04/14 04:15:57;;;;;;;5.00;4.60;;;;;;;19.11;58.23;98892.61;104406;1259;68680;-68
2023/04/14 04:18:26;;;;;;;4.50;4.00;;;;;;;19.08;58.50;98894.96;104474;1257;73001;-67
2023/04/14 04:20:55;;;;;;;4.30;3.90;;;;;;;19.06;58.84;98899.95;104315;1259;63506;-68
2023/04/14 04:23:24;;;;;;;5.20;4.30;;;;;;;19.14;59.06;98899.25;104392;1252;60654;-67
2023/04/14 04:25:53;;;;;;;4.40;4.10;;;;;;;19.14;59.25;98903.52;104413;1251;73053;-67
2023/04/14 04:28:40;;;;;;;8.10;4.30;;;;;;;19.22;59.27;98903.70;104517;1263;70070;-67
2023/04/14 04:31:09;;;;;;;6.10;5.00;;;;;;;19.22;58.66;98905.04;104529;1259;72368;-69
2023/04/14 04:33:38;;;;;;;6.80;4.90;;;;;;;19.27;58.61;98907.42;104394;1273;61181;-67
2023/04/14 04:36:06;;;;;;;4.80;4.40;;;;;;;19.32;58.59;98907.40;104853;1259;60246;-69
2023/04/14 04:38:41;;;;;;;5.20;4.80;;;;;;;19.33;58.86;98910.27;104591;1252;73537;-69
2023/04/14 04:41:21;;;;;;;5.20;4.80;;;;;;;19.36;58.65;98915.15;104454;1259;69974;-69
2023/04/14 04:43:50;;;;;;;7.00;5.20;;;;;;;19.35;58.36;98917.20;104425;1257;72139;-62
2023/04/14 04:46:40;;;;;;;4.40;4.10;;;;;;;19.27;58.75;98922.75;104716;1266;62014;-63
2023/04/14 04:51:09;;;;;;;6.10;4.90;;;;;;;18.40;71.40;98926.44;101482;1290;601109;-63
2023/04/14 04:53:38;;;;;;;6.20;5.60;;;;;;;19.60;59.87;98930.94;103780;1269;62655;-63
2023/04/14 04:56:07;;;;;;;5.40;4.90;;;;;;;19.59;59.38;98933.48;103784;1267;59827;-68
2023/04/14 04:58:37;;;;;;;5.50;5.00;;;;;;;19.64;59.12;98934.63;103720;1268;72160;-68
2023/04/14 05:01:09;;;;;;;5.90;5.40;;;;;;;19.70;58.59;98939.27;103781;1270;70884;-66
2023/04/14 05:03:40;;;;;;;6.30;5.80;;;;;;;19.62;58.50;98942.19;103852;1268;289309;-67
2023/04/14 05:06:09;;;;;;;5.80;5.20;;;;;;;19.54;58.76;98946.40;103932;1263;61894;-66
2023/04/14 05:08:40;;;;;;;6.30;5.60;;;;;;;19.55;58.55;98944.39;103956;1275;60391;-65
2023/04/14 05:11:11;;;;;;;6.60;5.70;;;;;;;19.54;58.90;98946.05;103992;1282;72458;-66
2023/04/14 05:13:39;;;;;;;7.00;6.00;;;;;;;19.55;59.01;98948.64;103963;1279;69694;-67
2023/04/14 05:16:10;;;;;;;7.10;6.50;;;;;;;19.60;58.44;98950.27;104435;1258;72223;-65
2023/04/14 05:18:41;;;;;;;8.00;5.50;;;;;;;19.68;58.31;98950.52;104322;1255;62508;-65
2023/04/14 05:21:14;;;;;;;6.50;5.90;;;;;;;19.70;58.11;98954.39;104301;1255;59746;-65
2023/04/14 05:23:43;;;;;;;7.60;6.80;;;;;;;19.68;58.25;98955.33;104360;1274;72354;-67
2023/04/14 05:26:15;;;;;;;7.30;6.60;;;;;;;19.61;58.26;98960.40;104315;1267;69371;-64
2023/04/14 05:28:47;;;;;;;7.60;7.00;;;;;;;19.62;57.97;98960.82;104633;1253;73206;-65
2023/04/14 05:31:15;;;;;;;7.60;6.70;;;;;;;19.62;58.05;98963.63;104286;1253;61567;-65
2023/04/14 05:33:44;;;;;;;7.70;7.10;;;;;;;19.61;58.14;98967.13;104373;1256;59651;-64
2023/04/14 05:36:13;;;;;;;7.20;6.50;;;;;;;19.64;58.22;98970.41;104283;1256;72188;-65
2023/04/14 05:38:42;;;;;;;6.90;6.30;;;;;;;19.64;58.14;98964.86;104626;1256;69052;-63
2023/04/14 05:41:11;;;;;;;7.40;6.10;;;;;;;19.71;57.71;98967.14;104314;1256;71960;-65
2023/04/14 05:43:41;;;;;;;7.90;6.80;;;;;;;19.73;57.88;98965.34;104359;1257;61261;-70
2023/04/14 05:46:10;;;;;;;8.40;7.40;;;;;;;19.65;57.86;98968.71;104410;1253;59865;-66
2023/04/14 05:48:40;;;;;;;7.40;6.70;;;;;;;19.55;58.50;98970.64;104556;1255;73530;-64
2023/04/14 05:51:08;;;;;;;7.80;7.10;;;;;;;19.56;58.50;98972.91;104304;1254;68521;-64
2023/04/14 05:53:37;;;;;;;7.60;6.80;;;;;;;19.56;58.80;98970.73;104340;1256;72886;-66
2023/04/14 05:56:08;;;;;;;7.60;6.90;;;;;;;19.55;59.16;98975.86;104447;1267;62278;-66
2023/04/14 05:58:37;;;;;;;8.60;7.80;;;;;;;19.58;59.28;98979.42;104477;1252;60062;-65
2023/04/14 06:01:05;;;;;;;7.70;7.00;;;;;;;19.61;58.58;98978.98;104271;1265;72183;-63
2023/04/14 06:03:36;;;;;;;8.70;7.90;;;;;;;19.59;58.99;98983.07;105177;1257;69902;-64
2023/04/14 06:06:08;;;;;;;9.30;8.50;;;;;;;19.63;58.88;98984.31;104472;1254;72875;-66
2023/04/14 06:08:38;;;;;;;8.00;7.20;;;;;;;19.62;59.27;98984.59;104454;1256;61969;-63
2023/04/14 06:11:06;;;;;;;7.90;7.10;;;;;;;19.69;59.38;98985.58;104484;1264;59742;-63
2023/04/14 06:13:35;;;;;;;8.80;8.00;;;;;;;19.77;59.21;98987.35;104296;1255;71944;-63
2023/04/14 06:16:04;;;;;;;8.80;8.00;;;;;;;19.80;58.94;98986.73;104395;1263;69201;-62
2023/04/14 06:18:34;;;;;;;8.50;7.60;;;;;;;19.86;58.77;98988.02;104404;1262;71658;-63
2023/04/14 06:21:03;;;;;;;8.90;8.10;;;;;;;19.92;58.64;98990.98;104364;1266;62815;-64
2023/04/14 06:23:31;;;;;;;8.40;7.20;;;;;;;19.97;58.52;98992.34;104751;1262;59863;-64
2023/04/14 06:26:00;;;;;;;7.60;6.90;;;;;;;20.00;58.60;98995.44;104653;1253;72835;-65
2023/04/14 06:28:32;;;;;;;8.10;7.40;;;;;;;19.97;58.64;98999.29;104339;1272;69620;-66
2023/04/14 06:31:01;;;;;;;8.00;7.10;;;;;;;19.92;58.78;99002.15;104393;1260;72898;-66
2023/04/14 06:33:30;;;;;;;24.00;10.00;;;;;;;20.00;58.69;99008.05;104399;1271;61447;-65
2023/04/14 06:36:00;;;;;;;8.60;7.70;;;;;;;20.01;58.25;99007.73;104441;1251;59720;-65
2023/04/14 06:38:30;;;;;;;8.50;7.70;;;;;;;20.01;58.19;99009.39;104286;1256;72228;-65
2023/04/14 06:40:58;;;;;;;8.20;7.40;;;;;;;19.98;58.21;99009.25;104349;1260;69526;-65
2023/04/14 06:43:27;;;;;;;8.30;7.60;;;;;;;19.94;58.57;99012.36;104380;1260;72883;-65
2023/04/14 06:45:56;;;;;;;8.20;7.40;;;;;;;19.95;58.65;99014.05;104508;1262;62572;-66
2023/04/14 06:48:26;;;;;;;9.60;7.60;;;;;;;19.92;58.75;99011.09;104299;1262;60438;-65
2023/04/14 06:50:56;;;;;;;9.50;7.50;;;;;;;19.87;58.57;99014.26;104417;1255;73229;-67
2023/04/14 06:53:25;;;;;;;8.50;7.70;;;;;;;19.82;58.75;99008.25;104368;1259;69756;-65
2023/04/14 06:55:59;;;;;;;7.90;7.20;;;;;;;19.80;58.95;99011.24;104342;1255;72179;-68
2023/04/14 06:58:29;;;;;;;7.40;6.70;;;;;;;19.81;59.36;99015.99;104347;1256;60866;-64
2023/04/14 07:01:00;;;;;;;7.30;6.60;;;;;;;19.82;59.25;99019.09;104378;1267;60129;-66
2023/04/14 07:03:30;;;;;;;9.00;7.00;;;;;;;19.88;59.18;99019.84;104670;1256;72140;-66
2023/04/14 07:06:03;;;;;;;7.90;7.10;;;;;;;19.91;59.12;99024.17;104873;1255;70894;-65
2023/04/14 07:08:33;;;;;;;8.90;7.30;;;;;;;19.86;59.22;99022.81;104737;1253;72892;-65
2023/04/14 07:11:03;;;;;;;9.60;6.70;;;;;;;19.88;59.47;99028.36;104757;1250;61172;-64
2023/04/14 07:13:33;;;;;;;12.80;7.70;;;;;;;19.84;59.83;99027.11;104879;1251;59367;-63
2023/04/14 07:16:06;;;;;;;7.80;7.00;;;;;;;19.82;60.21;99027.11;104670;1262;73460;-63
2023/04/14 07:18:35;;;;;;;8.40;7.50;;;;;;;19.88;59.85;99032.64;104725;1269;69240;-63
2023/04/14 07:21:03;;;;;;;8.60;7.70;;;;;;;19.85;59.76;99033.40;104421;1263;71945;-64
2023/04/14 07:23:33;;;;;;;8.00;7.20;;;;;;;19.89;60.34;99033.92;104406;1263;60856;-63
2023/04/14 07:26:01;;;;;;;8.10;6.90;;;;;;;19.92;60.78;99039.92;104405;1255;60987;-63
2023/04/14 07:28:31;;;;;;;7.80;7.00;;;;;;;19.99;60.34;99045.48;104432;1253;72211;-64
2023/04/14 07:31:08;;;;;;;8.50;7.70;;;;;;;19.99;59.82;99043.35;104419;1256;69263;-65
2023/04/14 07:33:39;;;;;;;8.80;8.00;;;;;;;19.98;60.18;99043.43;104478;1256;72488;-64
2023/04/14 07:36:08;;;;;;;8.20;7.40;;;;;;;19.94;59.86;99046.46;104446;1253;60919;-65
2023/04/14 07:38:36;;;;;;;8.90;7.60;;;;;;;19.90;60.35;99048.23;104280;1274;60709;-64
2023/04/14 07:41:05;;;;;;;9.60;7.70;;;;;;;19.96;60.27;99044.20;104429;1254;72131;-64
2023/04/14 07:43:34;;;;;;;7.80;6.70;;;;;;;19.98;60.43;99047.33;104392;1266;69260;-63
2023/04/14 07:46:04;;;;;;;8.50;7.70;;;;;;;20.02;60.58;99046.98;104333;1254;72286;-64
2023/04/14 07:48:34;;;;;;;8.50;7.10;;;;;;;20.10;60.88;99049.48;104491;1255;62072;-64
2023/04/14 07:51:08;;;;;;;9.00;7.70;;;;;;;20.15;59.82;99048.80;104446;1254;60419;-64
2023/04/14 07:53:42;;;;;;;8.90;8.00;;;;;;;20.15;59.68;99048.45;104434;1256;71972;-64
2023/04/14 07:56:11;;;;;;;8.50;7.40;;;;;;;20.15;59.95;99053.85;104319;1264;69782;-64
2023/04/14 07:58:41;;;;;;;10.20;7.90;;;;;;;20.18;60.61;99053.88;104460;1252;72091;-65
2023/04/14 08:01:10;;;;;;;9.40;7.70;;;;;;;20.13;60.53;99056.10;104576;1256;61390;-64
2023/04/14 08:03:39;;;;;;;8.30;7.50;;;;;;;20.21;60.74;99059.36;105032;1257;60402;-64
2023/04/14 08:06:12;;;;;;;8.90;8.10;;;;;;;20.27;60.18;99059.09;104509;1252;73339;-65
2023/04/14 08:08:42;;;;;;;7.80;7.00;;;;;;;20.26;59.82;99058.67;104591;1256;70297;-66
2023/04/14 08:11:10;;;;;;;8.30;6.90;;;;;;;20.29;60.19;99061.45;104498;1256;72217;-64
2023/04/14 08:13:39;;;;;;;10.00;7.30;;;;;;;20.32;59.93;99060.25;104670;1254;61245;-64
2023/04/14 08:16:08;;;;;;;9.00;7.60;;;;;;;20.35;59.96;99063.36;104486;1263;59576;-65
2023/04/14 08:18:39;;;;;;;7.70;6.90;;;;;;;20.34;59.40;99063.27;104733;1255;73274;-63
2023/04/14 08:21:08;;;;;;;7.80;7.00;;;;;;;20.31;59.60;99062.30;104738;1257;69243;-63
2023/04/14 08:23:37;;;;;;;8.10;7.30;;;;;;;20.38;59.57;99062.58;104620;1256;72204;-63
2023/04/14 08:26:06;;;;;;;8.30;7.10;;;;;;;20.39;59.27;99063.30;104607;1257;61162;-63
2023/04/14 08:28:35;;;;;;;8.30;7.40;;;;;;;20.44;59.24;99060.20;104747;1257;59729;-64
2023/04/14 08:31:04;;;;;;;7.70;7.00;;;;;;;20.41;58.88;99053.93;104768;1256;72543;-65
2023/04/14 08:33:33;;;;;;;8.30;7.10;;;;;;;20.35;59.35;99047.55;104358;1266;68972;-64
2023/04/14 08:36:02;;;;;;;7.90;6.70;;;;;;;20.38;59.74;99046.02;104422;1259;72927;-64
2023/04/14 08:38:34;;;;;;;8.70;7.00;;;;;;;20.42;59.50;99043.67;104256;1256;61095;-64
2023/04/14 08:41:06;;;;;;;8.00;7.30;;;;;;;20.45;59.44;99040.05;104319;1254;59720;-65
2023/04/14 08:43:35;;;;;;;8.40;7.60;;;;;;;20.46;59.37;99037.91;104312;1274;72504;-63
2023/04/14 08:46:06;;;;;;;8.50;7.70;;;;;;;20.49;59.53;99041.59;104361;1264;69506;-63
2023/04/14 08:48:35;;;;;;;9.20;8.30;;;;;;;20.52;60.03;99042.73;104303;1275;71870;-65
2023/04/14 08:51:14;;;;;;;9.00;7.90;;;;;;;20.57;60.54;99051.00;104371;1270;61847;-65
2023/04/14 08:53:44;;;;;;;8.10;7.30;;;;;;;20.65;60.37;99053.33;104314;1269;60643;-62
2023/04/14 08:56:17;;;;;;;8.30;7.50;;;;;;;20.66;59.69;99058.25;104394;1266;71954;-62
2023/04/14 08:58:46;;;;;;;9.40;7.70;;;;;;;20.71;60.11;99060.80;104248;1259;69666;-64
2023/04/14 09:01:14;;;;;;;8.80;7.90;;;;;;;20.78;59.66;99065.14;104323;1254;72537;-64
2023/04/14 09:03:44;;;;;;;8.90;7.40;;;;;;;20.73;58.80;99063.75;104331;1266;61758;-63
2023/04/14 09:06:13;;;;;;;7.80;7.00;;;;;;;20.69;59.20;99067.55;104586;1257;60424;-63
2023/04/14 09:08:47;;;;;;;8.00;7.30;;;;;;;20.67;59.90;99072.34;104750;1256;75219;-63
2023/04/14 09:11:16;;;;;;;10.10;7.90;;;;;;;20.71;59.42;99074.27;104599;1256;69888;-63
2023/04/14 09:13:46;;;;;;;8.50;7.70;;;;;;;20.69;59.55;99079.98;104698;1265;72095;-63
2023/04/14 09:16:16;;;;;;;8.60;7.80;;;;;;;20.74;59.45;99080.27;104651;1264;62361;-63
2023/04/14 09:18:46;;;;;;;8.70;7.50;;;;;;;20.77;59.61;99081.70;105172;1253;60596;-62
2023/04/14 09:21:18;;;;;;;8.40;7.60;;;;;;;20.80;59.84;99080.40;104899;1259;74936;-61
2023/04/14 09:24:07;;;;;;;10.00;7.90;;;;;;;20.85;59.85;99079.52;105123;1258;69867;-63
2023/04/14 09:26:39;;;;;;;8.50;7.70;;;;;;;20.82;59.43;99078.20;104337;1256;72234;-61
2023/04/14 09:29:07;;;;;;;9.50;8.20;;;;;;;20.82;59.62;99078.63;104385;1275;61818;-61
2023/04/14 09:31:37;;;;;;;10.60;8.10;;;;;;;20.84;59.34;99077.75;104267;1257;60451;-61
2023/04/14 09:34:14;;;;;;;8.40;7.60;;;;;;;20.80;58.89;99078.02;104369;1275;72916;-61
2023/04/14 09:37:07;;;;;;;9.30;8.30;;;;;;;20.79;59.47;99084.38;104299;1266;69487;-61
2023/04/14 09:39:46;;;;;;;8.20;7.40;;;;;;;20.83;59.55;99085.11;104253;1267;71804;-63
2023/04/14 09:42:16;;;;;;;8.70;7.80;;;;;;;20.79;59.67;99083.90;104546;1255;61218;-64
2023/04/14 09:44:53;;;;;;;9.80;8.90;;;;;;;20.80;59.35;99085.58;104632;1256;60603;-67
2023/04/14 09:47:23;;;;;;;10.90;8.70;;;;;;;20.85;59.30;99086.66;104615;1257;73604;-70
2023/04/14 09:49:58;;;;;;;9.20;8.30;;;;;;;20.88;59.56;99085.36;104706;1252;69903;-69
2023/04/14 09:52:36;;;;;;;11.30;8.70;;;;;;;20.97;59.72;99087.89;104543;1251;71909;-69
2023/04/14 09:55:14;;;;;;;9.50;8.40;;;;;;;21.09;59.58;99086.57;104715;1257;61064;-69
2023/04/14 09:57:43;;;;;;;8.90;8.00;;;;;;;21.17;59.15;99086.83;104610;1266;60559;-69
2023/04/14 10:00:15;;;;;;;9.30;8.10;;;;;;;21.20;58.94;99090.66;104381;1255;73027;-68
2023/04/14 10:03:08;;;;;;;8.30;7.50;;;;;;;21.24;57.76;99095.83;104454;1260;71443;-67
2023/04/14 10:05:38;;;;;;;8.70;7.80;;;;;;;21.26;58.40;99097.90;104570;1251;72549;-69
2023/04/14 10:08:06;;;;;;;9.00;8.20;;;;;;;21.27;57.77;99102.48;104371;1260;61763;-66
2023/04/14 10:10:35;;;;;;;8.40;7.60;;;;;;;21.25;57.49;99108.20;104586;1257;60474;-66
2023/04/14 10:13:07;;;;;;;7.90;7.10;;;;;;;21.26;57.66;99112.54;105044;1253;72875;-65
2023/04/14 10:15:40;;;;;;;7.90;7.30;;;;;;;21.27;57.71;99113.31;104881;1255;68975;-66
2023/04/14 10:18:09;;;;;;;7.70;7.00;;;;;;;21.29;58.01;99117.44;104671;1254;72671;-65
2023/04/14 10:20:43;;;;;;;7.50;6.80;;;;;;;21.34;57.51;99117.64;104499;1263;62036;-65
2023/04/14 10:23:12;;;;;;;8.00;7.30;;;;;;;21.36;57.46;99115.83;104442;1254;60556;-64
2023/04/14 10:25:41;;;;;;;8.10;7.40;;;;;;;21.32;58.23;99114.45;105134;1251;73663;-63
2023/04/14 10:28:10;;;;;;;8.90;7.30;;;;;;;21.32;57.77;99116.03;104585;1258;69507;-63
2023/04/14 10:30:38;;;;;;;8.10;7.40;;;;;;;21.36;57.91;99114.41;104646;1265;72923;-64
2023/04/14 10:33:07;;;;;;;7.90;7.10;;;;;;;21.38;57.84;99114.80;104360;1257;62383;-70
2023/04/14 10:35:41;;;;;;;8.10;7.30;;;;;;;21.37;58.05;99114.34;104363;1259;60640;-63
2023/04/14 10:38:10;;;;;;;9.20;7.20;;;;;;;21.40;57.82;99112.48;104434;1258;74055;-63
2023/04/14 10:40:45;;;;;;;7.60;6.90;;;;;;;21.44;57.68;99112.59;104460;1256;69305;-63
2023/04/14 10:43:14;;;;;;;8.30;6.80;;;;;;;21.48;57.63;99111.67;104625;1251;73234;-63
2023/04/14 10:45:53;;;;;;;8.00;7.30;;;;;;;21.50;57.56;99115.11;104567;1257;61169;-63
2023/04/14 10:48:27;;;;;;;8.40;7.30;;;;;;;21.51;57.91;99116.63;104691;1258;60550;-65
2023/04/14 10:50:58;;;;;;;8.60;7.40;;;;;;;21.50;57.39;99116.34;104490;1251;73000;-63
2023/04/14 10:53:58;;;;;;;8.90;7.40;;;;;;;21.52;56.95;99120.55;104617;1255;69809;-64
2023/04/14 10:56:28;;;;;;;10.10;8.10;;;;;;;21.48;56.31;99124.38;104463;1256;72605;-63
2023/04/14 10:58:57;;;;;;;9.80;7.70;;;;;;;21.35;56.54;99123.41;104293;1257;61798;-62
2023/04/14 11:01:30;;;;;;;7.90;7.20;;;;;;;21.38;56.54;99128.90;104721;1260;60912;-62
2023/04/14 11:04:15;;;;;;;7.70;6.80;;;;;;;21.37;56.81;99130.36;104722;1252;72951;-62
2023/04/14 11:06:46;;;;;;;8.10;6.90;;;;;;;21.23;57.09;99137.23;104464;1257;69438;-64
2023/04/14 11:09:29;;;;;;;8.50;7.60;;;;;;;21.19;57.46;99142.25;104321;1255;72348;-62
2023/04/14 11:12:03;;;;;;;9.40;7.30;;;;;;;21.19;57.42;99146.36;104465;1257;63340;-62
2023/04/14 11:14:34;;;;;;;8.80;7.00;;;;;;;21.14;57.22;99149.10;104485;1257;60557;-62
2023/04/14 11:17:03;;;;;;;10.30;7.20;;;;;;;21.23;57.73;99153.60;104597;1260;73242;-62
2023/04/14 11:19:32;;;;;;;8.00;7.30;;;;;;;21.31;57.47;99149.15;104284;1273;68788;-61
2023/04/14 11:22:01;;;;;;;9.00;6.60;;;;;;;21.39;57.13;99153.36;104301;1263;71776;-61
2023/04/14 11:24:29;;;;;;;8.80;6.50;;;;;;;21.42;56.64;99155.41;104462;1257;62531;-62
2023/04/14 11:26:58;;;;;;;6.90;6.30;;;;;;;21.41;56.60;99152.52;104515;1257;60298;-61
2023/04/14 11:29:29;;;;;;;6.60;6.10;;;;;;;21.37;56.10;99156.56;104320;1256;72855;-61
2023/04/14 11:32:04;;;;;;;8.30;5.80;;;;;;;21.36;56.53;99159.70;104196;1274;68657;-61
2023/04/14 11:34:33;;;;;;;6.60;5.90;;;;;;;21.35;55.63;99160.91;104622;1264;72836;-61
2023/04/14 11:37:03;;;;;;;6.00;5.50;;;;;;;21.37;56.13;99159.49;104463;1251;61055;-61
2023/04/14 11:39:31;;;;;;;7.10;5.80;;;;;;;21.37;56.16;99157.60;104248;1262;60444;-62
2023/04/14 11:42:00;;;;;;;6.60;6.00;;;;;;;21.40;55.82;99156.73;104288;1262;73663;-62
2023/04/14 11:44:29;;;;;;;6.80;6.20;;;;;;;21.44;55.58;99160.98;104375;1256;68986;-62